createdAt,value
2022-10-17T00:01:05.620Z,100592.38
2022-10-17T00:03:33.602Z,100591.41
2022-10-17T00:06:07.202Z,100588.63
2022-10-17T00:08:35.503Z,100588.00
2022-10-17T00:11:07.597Z,100588.88
2022-10-17T00:13:36.679Z,100584.47
2022-10-17T00:16:05.153Z,100594.22
2022-10-17T00:18:33.271Z,100593.63
2022-10-17T00:21:01.354Z,100601.44
2022-10-17T00:23:30.431Z,100590.94
2022-10-17T00:26:01.884Z,100618.41
2022-10-17T00:28:31.505Z,100595.50
2022-10-17T00:30:59.686Z,100622.19
2022-10-17T00:33:27.881Z,100627.56
2022-10-17T00:36:04.717Z,100632.94
2022-10-17T00:38:32.585Z,100636.59
2022-10-17T00:41:00.533Z,100644.78
2022-10-17T00:43:29.716Z,100635.72
2022-10-17T00:45:59.003Z,100634.78
2022-10-17T00:48:27.353Z,100652.69
2022-10-17T00:50:56.119Z,100643.94
2022-10-17T00:53:24.090Z,100652.00
2022-10-17T00:55:54.030Z,100652.69
2022-10-17T00:58:22.537Z,100652.84
2022-10-17T01:00:50.621Z,100647.47
2022-10-17T01:03:20.037Z,100649.16
2022-10-17T01:05:48.116Z,100650.16
2022-10-17T01:08:16.259Z,100655.53
2022-10-17T01:10:55.801Z,100667.97
2022-10-17T01:13:29.350Z,100677.84
2022-10-17T01:16:05.732Z,100679.94
2022-10-17T01:18:49.250Z,100672.34
2022-10-17T01:21:31.529Z,100689.44
2022-10-17T01:24:24.697Z,100710.06
2022-10-17T01:27:11.564Z,100709.22
2022-10-17T01:30:02.884Z,100719.97
2022-10-17T01:32:40.789Z,100726.31
2022-10-17T01:35:17.463Z,100735.09
2022-10-17T01:37:49.475Z,100733.25
2022-10-17T01:40:24.120Z,100741.19
2022-10-17T01:42:59.168Z,100753.78
2022-10-17T01:45:33.465Z,100689.38
2022-10-17T01:48:08.381Z,100745.72
2022-10-17T01:50:40.981Z,100766.34
2022-10-17T01:53:14.469Z,100756.47
2022-10-17T01:55:45.373Z,100766.19
2022-10-17T01:58:19.065Z,100770.59
2022-10-17T02:00:49.942Z,100775.97
2022-10-17T02:03:21.818Z,100788.53
2022-10-17T02:05:50.001Z,100785.00
2022-10-17T02:08:28.153Z,100796.59
2022-10-17T02:11:02.631Z,100805.38
2022-10-17T02:13:44.688Z,100775.38
2022-10-17T02:16:25.772Z,100802.94
2022-10-17T02:19:09.239Z,100815.25
2022-10-17T02:21:46.458Z,100818.81
2022-10-17T02:24:21.617Z,100823.47
2022-10-17T02:26:56.615Z,100817.94
2022-10-17T02:29:30.424Z,100826.88
2022-10-17T02:32:03.836Z,100838.38
2022-10-17T02:34:37.681Z,100834.94
2022-10-17T02:37:09.584Z,100859.09
2022-10-17T02:39:39.255Z,100862.63
2022-10-17T02:42:11.752Z,100851.91
2022-10-17T02:44:43.670Z,100859.94
2022-10-17T02:47:21.309Z,100868.00
2022-10-17T02:49:53.152Z,100871.56
2022-10-17T02:52:28.841Z,100867.03
2022-10-17T02:55:03.919Z,100883.16
2022-10-17T02:57:37.017Z,100875.22
2022-10-17T03:00:08.757Z,100872.53
2022-10-17T03:02:41.094Z,100876.94
2022-10-17T03:05:14.449Z,100878.75
2022-10-17T03:07:42.409Z,100895.84
2022-10-17T03:10:10.730Z,100886.09
2022-10-17T03:12:38.937Z,100882.41
2022-10-17T03:15:08.234Z,100872.91
2022-10-17T03:17:36.860Z,100895.00
2022-10-17T03:20:05.751Z,100899.50
2022-10-17T03:22:35.069Z,100901.19
2022-10-17T03:25:05.136Z,100896.09
2022-10-17T03:27:36.108Z,100909.53
2022-10-17T03:30:05.030Z,100917.44
2022-10-17T03:32:34.537Z,100926.47
2022-10-17T03:35:02.583Z,100937.22
2022-10-17T03:37:31.029Z,100938.94
2022-10-17T03:40:01.460Z,100942.59
2022-10-17T03:42:30.358Z,100957.00
2022-10-17T03:44:58.664Z,100959.69
2022-10-17T03:47:26.666Z,100964.19
2022-10-17T03:49:54.669Z,100971.41
2022-10-17T03:52:22.877Z,100982.03
2022-10-17T03:54:51.584Z,100976.91
2022-10-17T03:57:21.150Z,100987.41
2022-10-17T03:59:51.005Z,100999.13
2022-10-17T04:02:21.133Z,100993.75
2022-10-17T04:04:50.310Z,101006.31
2022-10-17T04:07:18.377Z,101024.38
2022-10-17T04:09:47.485Z,101010.81
2022-10-17T04:12:21.177Z,101030.59
2022-10-17T04:14:49.478Z,101032.44
2022-10-17T04:17:18.181Z,101038.66
2022-10-17T04:19:46.588Z,101039.13
2022-10-17T04:22:17.192Z,101049.50
2022-10-17T04:24:45.133Z,101046.00
2022-10-17T04:27:33.137Z,101053.28
2022-10-17T04:30:01.443Z,101064.88
2022-10-17T04:32:32.008Z,101072.94
2022-10-17T04:35:08.646Z,101063.19
2022-10-17T04:37:37.132Z,101080.25
2022-10-17T04:40:12.458Z,101083.03
2022-10-17T04:42:41.836Z,101091.88
2022-10-17T04:45:12.050Z,101089.41
2022-10-17T04:47:41.391Z,101100.03
2022-10-17T04:50:10.143Z,101108.06
2022-10-17T04:52:38.347Z,101115.28
2022-10-17T04:55:07.028Z,101116.13
2022-10-17T04:57:36.498Z,101115.41
2022-10-17T05:00:13.349Z,101125.28
2022-10-17T05:03:00.334Z,101131.72
2022-10-17T05:05:29.647Z,101137.00
2022-10-17T05:07:58.562Z,101137.09
2022-10-17T05:10:30.528Z,101139.69
2022-10-17T05:12:59.430Z,101145.06
2022-10-17T05:15:32.932Z,101151.25
2022-10-17T05:18:02.321Z,101157.63
2022-10-17T05:20:31.599Z,101160.31
2022-10-17T05:23:00.543Z,101147.47
2022-10-17T05:25:33.092Z,101157.72
2022-10-17T05:28:01.140Z,101172.00
2022-10-17T05:30:31.448Z,101183.75
2022-10-17T05:33:04.043Z,101175.69
2022-10-17T05:35:32.595Z,101188.25
2022-10-17T05:38:01.057Z,101180.41
2022-10-17T05:40:31.181Z,101188.25
2022-10-17T05:43:00.144Z,101200.81
2022-10-17T05:45:28.084Z,101199.94
2022-10-17T05:47:56.014Z,101202.75
2022-10-17T05:50:25.426Z,101209.00
2022-10-17T05:53:13.936Z,101216.28
2022-10-17T05:55:46.897Z,101217.13
2022-10-17T05:58:22.133Z,101232.50
2022-10-17T06:01:02.206Z,101239.47
2022-10-17T06:03:30.455Z,101235.19
2022-10-17T06:06:05.097Z,101248.50
2022-10-17T06:08:33.261Z,101251.31
2022-10-17T06:11:04.815Z,101252.25
2022-10-17T06:13:36.100Z,101260.88
2022-10-17T06:16:10.841Z,101271.19
2022-10-17T06:18:39.663Z,101275.69
2022-10-17T06:21:11.636Z,101263.34
2022-10-17T06:23:44.362Z,101277.50
2022-10-17T06:26:20.618Z,101283.75
2022-10-17T06:28:49.568Z,101291.06
2022-10-17T06:31:18.606Z,101300.78
2022-10-17T06:33:48.064Z,101305.22
2022-10-17T06:36:17.323Z,101308.84
2022-10-17T06:38:46.450Z,101304.34
2022-10-17T06:41:33.506Z,101313.19
2022-10-17T06:44:10.990Z,101314.00
2022-10-17T06:46:39.399Z,101326.47
2022-10-17T06:49:11.304Z,101335.28
2022-10-17T06:51:51.844Z,101344.94
2022-10-17T06:54:24.095Z,101354.81
2022-10-17T06:57:14.576Z,101369.22
2022-10-17T06:59:53.340Z,101359.22
2022-10-17T07:02:29.870Z,101368.16
2022-10-17T07:05:00.587Z,101373.50
2022-10-17T07:07:31.965Z,101383.91
2022-10-17T07:10:00.296Z,101375.75
2022-10-17T07:12:28.290Z,101381.00
2022-10-17T07:14:56.228Z,101378.41
2022-10-17T07:17:24.386Z,101382.75
2022-10-17T07:19:52.465Z,101389.06
2022-10-17T07:22:20.397Z,101387.25
2022-10-17T07:24:52.019Z,101400.56
2022-10-17T07:27:27.332Z,101395.31
2022-10-17T07:29:55.429Z,101401.63
2022-10-17T07:32:38.114Z,101410.34
2022-10-17T07:35:06.897Z,101414.63
2022-10-17T07:37:34.922Z,101422.56
2022-10-17T07:40:06.441Z,101417.31
2022-10-17T07:45:07.648Z,101433.84
2022-10-17T07:47:36.220Z,101423.09
2022-10-17T07:50:07.398Z,101423.88
2022-10-17T07:52:35.422Z,101427.38
2022-10-17T07:55:03.304Z,101444.28
2022-10-17T07:57:32.586Z,101450.50
2022-10-17T08:00:00.501Z,101460.28
2022-10-17T08:02:29.292Z,101468.22
2022-10-17T08:04:57.332Z,101460.63
2022-10-17T08:07:29.162Z,101484.25
2022-10-17T08:09:57.576Z,101484.25
2022-10-17T08:12:26.040Z,101490.25
2022-10-17T08:14:55.316Z,101491.84
2022-10-17T08:17:23.169Z,101488.19
2022-10-17T08:19:51.100Z,101493.41
2022-10-17T08:22:19.058Z,101497.69
2022-10-17T08:24:47.315Z,101474.78
2022-10-17T08:27:15.314Z,101509.09
2022-10-17T08:29:43.241Z,101503.72
2022-10-17T08:32:12.471Z,101497.56
2022-10-17T08:34:40.320Z,101507.16
2022-10-17T08:37:08.302Z,101508.75
2022-10-17T08:39:36.202Z,101511.31
2022-10-17T08:42:19.428Z,101507.69
2022-10-17T08:44:55.825Z,101518.22
2022-10-17T08:47:30.627Z,101523.59
2022-10-17T08:50:02.170Z,101525.41
2022-10-17T08:52:37.715Z,101509.09
2022-10-17T08:55:10.978Z,101538.72
2022-10-17T08:57:39.024Z,101542.28
2022-10-17T09:00:16.773Z,101543.03
2022-10-17T09:02:54.612Z,101544.88
2022-10-17T09:05:31.672Z,101547.31
2022-10-17T09:08:10.277Z,101549.91
2022-10-17T09:10:56.099Z,101557.84
2022-10-17T09:16:19.564Z,101554.22
2022-10-17T09:19:03.875Z,101562.28
2022-10-17T09:21:43.108Z,101564.75
2022-10-17T09:24:17.503Z,101572.81
2022-10-17T09:26:47.006Z,101580.00
2022-10-17T09:29:23.001Z,101576.38
2022-10-17T09:31:58.816Z,101571.00
2022-10-17T09:34:30.214Z,101551.22
2022-10-17T09:37:00.286Z,101569.13
2022-10-17T09:39:31.886Z,101561.41
2022-10-17T09:42:01.085Z,101576.25
2022-10-17T09:44:33.144Z,101586.03
2022-10-17T09:47:25.185Z,101588.72
2022-10-17T09:49:54.609Z,101594.41
2022-10-17T09:52:27.825Z,101597.75
2022-10-17T09:55:00.946Z,101595.94
2022-10-17T09:57:29.482Z,101599.69
2022-10-17T10:00:00.406Z,101605.06
2022-10-17T10:02:30.428Z,101608.63
2022-10-17T10:05:04.648Z,101606.91
2022-10-17T10:07:36.672Z,101601.59
2022-10-17T10:10:07.525Z,101611.63
2022-10-17T10:12:37.970Z,101616.03
2022-10-17T10:15:33.802Z,101622.28
2022-10-17T10:18:02.097Z,101626.03
2022-10-17T10:20:34.442Z,101624.09
2022-10-17T10:23:13.686Z,101610.66
2022-10-17T10:25:53.981Z,101615.16
2022-10-17T10:28:26.591Z,101621.63
2022-10-17T10:30:56.585Z,101619.81
2022-10-17T10:33:28.445Z,101632.38
2022-10-17T10:36:01.232Z,101625.19
2022-10-17T10:38:29.749Z,101638.81
2022-10-17T10:41:03.221Z,101644.09
2022-10-17T10:43:37.877Z,101627.22
2022-10-17T10:46:17.093Z,101630.88
2022-10-17T10:48:52.785Z,101636.13
2022-10-17T10:51:29.255Z,101635.28
2022-10-17T10:54:04.910Z,101642.47
2022-10-17T10:56:38.914Z,101641.84
2022-10-17T10:59:14.877Z,101635.72
2022-10-17T11:01:51.383Z,101624.97
2022-10-17T11:04:27.660Z,101638.09
2022-10-17T11:07:11.671Z,101625.59
2022-10-17T11:09:49.755Z,101638.16
2022-10-17T11:12:23.773Z,101650.78
2022-10-17T11:14:57.602Z,101640.03
2022-10-17T11:17:33.978Z,101637.34
2022-10-17T11:20:15.068Z,101642.72
2022-10-17T11:22:48.582Z,101645.41
2022-10-17T11:25:35.301Z,101641.84
2022-10-17T11:28:05.325Z,101644.81
2022-10-17T11:30:46.110Z,101650.00
2022-10-17T11:33:19.690Z,101645.59
2022-10-17T11:35:51.214Z,101648.28
2022-10-17T11:38:26.464Z,101647.44
2022-10-17T11:40:59.584Z,101650.13
2022-10-17T11:43:32.381Z,101649.38
2022-10-17T11:46:05.833Z,101634.06
2022-10-17T11:48:40.738Z,101640.31
2022-10-17T11:54:07.707Z,101645.81
2022-10-17T11:56:42.934Z,101637.63
2022-10-17T11:59:41.116Z,101649.25
2022-10-17T12:02:15.972Z,101646.88
2022-10-17T12:04:55.785Z,101652.69
2022-10-17T12:07:34.217Z,101647.22
2022-10-17T12:10:22.749Z,101643.66
2022-10-17T12:12:50.685Z,101635.59
2022-10-17T12:15:31.990Z,101626.78
2022-10-17T12:18:02.877Z,101630.03
2022-10-17T12:20:35.692Z,101631.63
2022-10-17T12:23:24.259Z,101629.81
2022-10-17T12:25:58.403Z,101630.66
2022-10-17T12:28:33.122Z,101621.22
2022-10-17T12:31:05.742Z,101623.34
2022-10-17T12:33:36.741Z,101620.53
2022-10-17T12:36:47.515Z,101620.44
2022-10-17T12:39:52.394Z,101612.47
2022-10-17T12:42:52.492Z,101612.34
2022-10-17T12:45:46.011Z,101615.06
2022-10-17T12:48:14.063Z,101603.47
2022-10-17T12:53:59.755Z,101611.06
2022-10-17T12:56:38.746Z,101612.81
2022-10-17T12:59:17.536Z,101610.13
2022-10-17T13:01:48.189Z,101623.78
2022-10-17T13:04:17.161Z,101625.91
2022-10-17T13:06:48.191Z,101628.28
2022-10-17T13:09:25.995Z,101621.00
2022-10-17T13:11:55.083Z,101627.31
2022-10-17T13:14:25.758Z,101620.22
2022-10-17T13:16:55.850Z,101637.13
2022-10-17T13:19:26.994Z,101637.00
2022-10-17T13:21:59.893Z,101640.56
2022-10-17T13:24:33.566Z,101640.44
2022-10-17T13:27:01.910Z,101641.19
2022-10-17T13:29:32.955Z,101610.75
2022-10-17T13:32:04.044Z,101633.97
2022-10-17T13:34:33.721Z,101642.91
2022-10-17T13:37:03.902Z,101624.97
2022-10-17T13:39:54.418Z,101634.63
2022-10-17T13:42:27.623Z,101627.00
2022-10-17T13:44:58.623Z,101640.09
2022-10-17T13:47:29.463Z,101639.81
2022-10-17T13:49:59.009Z,101631.28
2022-10-17T13:52:29.778Z,101634.63
2022-10-17T13:55:11.765Z,101629.13
2022-10-17T13:57:41.258Z,101620.44
2022-10-17T14:00:20.540Z,101619.59
2022-10-17T14:02:49.432Z,101627.31
2022-10-17T14:05:20.363Z,101621.06
2022-10-17T14:10:43.588Z,101602.47
2022-10-17T14:13:22.908Z,101640.00
2022-10-17T14:15:53.906Z,101634.84
2022-10-17T14:18:25.599Z,101650.03
2022-10-17T14:23:44.506Z,101665.50
2022-10-17T14:26:15.658Z,101636.00
2022-10-17T14:28:45.757Z,101650.22
2022-10-17T14:31:22.063Z,101652.72
2022-10-17T14:33:52.135Z,101640.34
2022-10-17T14:36:21.405Z,101642.16
2022-10-17T14:38:53.077Z,101624.22
2022-10-17T14:41:43.523Z,101632.28
2022-10-17T14:44:19.890Z,101638.72
2022-10-17T14:46:54.201Z,101631.63
2022-10-17T14:49:32.406Z,101641.50
2022-10-17T14:52:31.937Z,101628.19
2022-10-17T14:55:02.301Z,101626.78
2022-10-17T14:57:43.749Z,101631.97
2022-10-17T15:00:15.946Z,101613.13
2022-10-17T15:02:46.662Z,101606.03
2022-10-17T15:05:15.691Z,101582.06
2022-10-17T15:07:44.280Z,101593.53
2022-10-17T15:10:32.951Z,101575.72
2022-10-17T15:13:27.551Z,101564.97
2022-10-17T15:15:52.141Z,101570.34
2022-10-17T15:18:21.701Z,101594.88
2022-10-17T15:20:55.399Z,101596.78
2022-10-17T15:23:32.874Z,101609.47
2022-10-17T15:26:02.775Z,101599.59
2022-10-17T15:28:30.931Z,101610.53
2022-10-17T15:30:58.963Z,101614.22
2022-10-17T15:33:28.307Z,101616.03
2022-10-17T15:38:29.285Z,101598.31
2022-10-17T15:40:57.452Z,101567.88
2022-10-17T15:43:25.485Z,101570.66
2022-10-17T15:45:53.492Z,101582.38
2022-10-17T15:48:30.811Z,101576.16
2022-10-17T15:51:00.321Z,101578.09
2022-10-17T15:53:28.404Z,101580.88
2022-10-17T15:55:56.441Z,101590.78
2022-10-17T15:58:24.370Z,101581.94
2022-10-17T16:00:52.344Z,101526.25
2022-10-17T16:05:53.167Z,101576.97
2022-10-17T16:08:22.452Z,101579.75
2022-10-17T16:10:51.377Z,101590.63
2022-10-17T16:13:21.581Z,101567.53
2022-10-17T16:15:49.610Z,101582.91
2022-10-17T16:18:17.473Z,101582.78
2022-10-17T16:20:45.496Z,101580.97
2022-10-17T16:23:14.883Z,101584.72
2022-10-17T16:25:44.268Z,101578.47
2022-10-17T16:28:12.208Z,101572.44
2022-10-17T16:30:46.093Z,101567.94
2022-10-17T16:33:14.134Z,101573.53
2022-10-17T16:35:42.042Z,101575.47
2022-10-17T16:38:09.998Z,101565.47
2022-10-17T16:40:39.772Z,101565.47
2022-10-17T16:43:11.375Z,101564.72
2022-10-17T16:45:39.618Z,101567.50
2022-10-17T16:48:07.908Z,101561.28
2022-10-17T16:50:39.446Z,101552.34
2022-10-17T16:53:07.398Z,101557.84
2022-10-17T16:55:35.284Z,101556.84
2022-10-17T16:58:03.217Z,101554.19
2022-10-17T17:00:32.719Z,101543.44
2022-10-17T17:03:00.870Z,101534.75
2022-10-17T17:05:28.773Z,101540.88
2022-10-17T17:07:56.858Z,101535.59
2022-10-17T17:10:24.813Z,101528.38
2022-10-17T17:12:52.761Z,101533.00
2022-10-17T17:15:20.708Z,101531.19
2022-10-17T17:17:54.731Z,101541.94
2022-10-17T17:20:23.467Z,101542.16
2022-10-17T17:22:52.359Z,101539.47
2022-10-17T17:25:20.304Z,101528.72
2022-10-17T17:27:48.285Z,101522.59
2022-10-17T17:30:16.887Z,101521.72
2022-10-17T17:32:44.898Z,101513.75
2022-10-17T17:35:14.361Z,101513.75
2022-10-17T17:37:42.351Z,101514.75
2022-10-17T17:40:11.370Z,101514.00
2022-10-17T17:42:39.463Z,101520.22
2022-10-17T17:45:08.469Z,101514.84
2022-10-17T17:47:36.423Z,101514.97
2022-10-17T17:50:04.746Z,101512.28
2022-10-17T17:52:34.022Z,101511.31
2022-10-17T17:55:02.097Z,101513.22
2022-10-17T17:57:31.157Z,101500.03
2022-10-17T17:59:59.148Z,101510.53
2022-10-17T18:02:27.177Z,101499.91
2022-10-17T18:04:55.159Z,101507.22
2022-10-17T18:07:23.288Z,101508.94
2022-10-17T18:09:53.255Z,101506.25
2022-10-17T18:12:21.533Z,101510.78
2022-10-17T18:14:49.597Z,101504.44
2022-10-17T18:17:17.547Z,101511.72
2022-10-17T18:19:45.527Z,101512.69
2022-10-17T18:22:13.588Z,101516.25
2022-10-17T18:24:42.223Z,101501.00
2022-10-17T18:27:13.525Z,101480.47
2022-10-17T18:29:41.617Z,101490.47
2022-10-17T18:32:09.496Z,101490.47
2022-10-17T18:34:37.627Z,101470.59
2022-10-17T18:37:05.810Z,101483.34
2022-10-17T18:39:33.913Z,101481.53
2022-10-17T18:42:01.999Z,101465.56
2022-10-17T18:44:31.621Z,101472.63
2022-10-17T18:47:03.825Z,101471.78
2022-10-17T18:49:32.728Z,101426.97
2022-10-17T18:52:00.751Z,101463.81
2022-10-17T18:54:29.371Z,101462.00
2022-10-17T18:56:57.779Z,101457.91
2022-10-17T18:59:25.853Z,101470.06
2022-10-17T19:01:55.398Z,101469.94
2022-10-17T19:04:23.733Z,101462.00
2022-10-17T19:06:52.118Z,101461.03
2022-10-17T19:09:20.756Z,101462.13
2022-10-17T19:11:48.882Z,101462.00
2022-10-17T19:14:17.502Z,101447.72
2022-10-17T19:16:49.962Z,101451.25
2022-10-17T19:19:22.270Z,101433.34
2022-10-17T19:21:51.177Z,101427.22
2022-10-17T19:24:22.584Z,101418.19
2022-10-17T19:26:53.509Z,101413.78
2022-10-17T19:29:23.139Z,101404.75
2022-10-17T19:31:51.436Z,101407.44
2022-10-17T19:34:21.505Z,101404.75
2022-10-17T19:36:50.668Z,101401.31
2022-10-17T19:39:22.989Z,101399.38
2022-10-17T19:41:51.281Z,101344.41
2022-10-17T19:44:20.052Z,101390.59
2022-10-17T19:46:49.326Z,101391.53
2022-10-17T19:49:18.190Z,101389.63
2022-10-17T19:51:47.802Z,101385.97
2022-10-17T19:54:18.218Z,101374.59
2022-10-17T19:56:46.171Z,101371.69
2022-10-17T19:59:15.847Z,101367.91
2022-10-17T20:01:44.519Z,101367.09
2022-10-17T20:04:13.392Z,101361.72
2022-10-17T20:06:42.165Z,101360.72
2022-10-17T20:09:15.870Z,101352.69
2022-10-17T20:11:45.730Z,101352.69
2022-10-17T20:14:13.640Z,101350.75
2022-10-17T20:16:41.566Z,101344.63
2022-10-17T20:19:12.338Z,101337.56
2022-10-17T20:21:40.494Z,101339.16
2022-10-17T20:24:14.727Z,101331.09
2022-10-17T20:26:43.518Z,101320.47
2022-10-17T20:29:14.337Z,101323.13
2022-10-17T20:31:43.860Z,101315.22
2022-10-17T20:34:14.768Z,101322.28
2022-10-17T20:36:42.801Z,101320.47
2022-10-17T20:39:14.233Z,101318.75
2022-10-17T20:41:42.919Z,101320.47
2022-10-17T20:44:11.466Z,101314.22
2022-10-17T20:46:48.498Z,101305.44
2022-10-17T20:49:25.754Z,101308.25
2022-10-17T20:51:53.632Z,101295.97
2022-10-17T20:54:22.901Z,101303.72
2022-10-17T20:56:51.311Z,101288.69
2022-10-17T20:59:19.406Z,101282.56
2022-10-17T21:01:48.644Z,101278.06
2022-10-17T21:04:44.120Z,101277.19
2022-10-17T21:07:04.818Z,101277.44
2022-10-17T21:09:34.558Z,101284.63
2022-10-17T21:12:05.044Z,101277.53
2022-10-17T21:14:34.102Z,101269.47
2022-10-17T21:17:04.921Z,101251.59
2022-10-17T21:19:33.393Z,101261.66
2022-10-17T21:22:01.599Z,101208.44
2022-10-17T21:24:29.554Z,101248.34
2022-10-17T21:26:58.918Z,101246.53
2022-10-17T21:29:27.001Z,101248.34
2022-10-17T21:31:54.954Z,101250.91
2022-10-17T21:34:25.144Z,101245.53
2022-10-17T21:36:53.552Z,101241.91
2022-10-17T21:39:22.926Z,101235.56
2022-10-17T21:41:50.871Z,101221.38
2022-10-17T21:44:22.337Z,101225.66
2022-10-17T21:46:50.530Z,101224.94
2022-10-17T21:49:20.489Z,101216.88
2022-10-17T21:51:49.305Z,101211.63
2022-10-17T21:54:18.816Z,101207.88
2022-10-17T21:56:46.913Z,101217.22
2022-10-17T21:59:15.069Z,101217.75
2022-10-17T22:01:46.269Z,101214.19
2022-10-17T22:04:15.922Z,101205.28
2022-10-17T22:06:46.017Z,101207.88
2022-10-17T22:09:17.147Z,101198.31
2022-10-17T22:11:46.886Z,101199.06
2022-10-17T22:14:16.805Z,101201.72
2022-10-17T22:16:47.187Z,101177.75
2022-10-17T22:19:17.813Z,101200.13
2022-10-17T22:21:46.240Z,101209.91
2022-10-17T22:24:15.682Z,101196.38
2022-10-17T22:26:44.577Z,101182.13
2022-10-17T22:29:12.609Z,101177.72
2022-10-17T22:31:41.131Z,101174.06
2022-10-17T22:34:13.841Z,101163.19
2022-10-17T22:36:42.100Z,101172.34
2022-10-17T22:39:10.758Z,101155.28
2022-10-17T22:41:38.916Z,101147.44
2022-10-17T22:44:07.648Z,101153.69
2022-10-17T22:46:36.002Z,101147.66
2022-10-17T22:49:04.195Z,101153.78
2022-10-17T22:51:33.517Z,101153.69
2022-10-17T22:54:01.592Z,101151.94
2022-10-17T22:56:29.548Z,101135.69
2022-10-17T22:58:57.534Z,101149.41
2022-10-17T23:01:27.143Z,101147.44
2022-10-17T23:03:55.217Z,101138.53
2022-10-17T23:06:23.689Z,101124.25
2022-10-17T23:08:53.296Z,101125.13
2022-10-17T23:11:21.928Z,101116.31
2022-10-17T23:13:49.801Z,101107.63
2022-10-17T23:16:17.711Z,101108.16
2022-10-17T23:18:45.742Z,101115.34
2022-10-17T23:21:13.753Z,101111.91
2022-10-17T23:23:41.792Z,101113.53
2022-10-17T23:26:12.974Z,101117.06
2022-10-17T23:28:41.731Z,101109.00
2022-10-17T23:31:14.459Z,101095.09
2022-10-17T23:33:42.926Z,101099.59
2022-10-17T23:36:11.633Z,101105.47
2022-10-17T23:38:39.892Z,101087.44
2022-10-17T23:41:08.024Z,101094.88
2022-10-17T23:43:37.423Z,101092.28
2022-10-17T23:46:06.476Z,101094.88
2022-10-17T23:48:34.585Z,101090.59
2022-10-17T23:51:02.865Z,101083.91
2022-10-17T23:53:30.730Z,101090.59
2022-10-17T23:55:58.714Z,101088.63
2022-10-17T23:58:26.646Z,101088.63
